sensor_id;sensor_type;location;lat;lon;timestamp;pressure;altitude;pressure_sealevel;temperature;humidity
20350;BME280;10332;50.208;18.988;2023-02-20T00:01:37;98630.78;;;2.71;87.91
20350;BME280;10332;50.208;18.988;2023-02-20T00:04:05;98622.16;;;2.72;87.98
20350;BME280;10332;50.208;18.988;2023-02-20T00:06:32;98623.16;;;2.66;88.17
20350;BME280;10332;50.208;18.988;2023-02-20T00:09:00;98615.94;;;2.79;87.67
20350;BME280;10332;50.208;18.988;2023-02-20T00:11:27;98609.38;;;2.67;87.91
20350;BME280;10332;50.208;18.988;2023-02-20T00:13:55;98614.38;;;2.73;87.79
20350;BME280;10332;50.208;18.988;2023-02-20T00:16:22;98614.22;;;2.79;87.39
20350;BME280;10332;50.208;18.988;2023-02-20T00:18:50;98614.31;;;2.75;87.54
20350;BME280;10332;50.208;18.988;2023-02-20T00:21:17;98619.66;;;2.69;87.75
20350;BME280;10332;50.208;18.988;2023-02-20T00:23:45;98618.44;;;2.82;87.39
20350;BME280;10332;50.208;18.988;2023-02-20T00:26:13;98609.13;;;2.76;87.39
20350;BME280;10332;50.208;18.988;2023-02-20T00:28:42;98610.78;;;2.79;87.58
20350;BME280;10332;50.208;18.988;2023-02-20T00:31:15;98616.00;;;2.76;87.84
20350;BME280;10332;50.208;18.988;2023-02-20T00:33:46;98609.13;;;2.76;87.66
20350;BME280;10332;50.208;18.988;2023-02-20T00:36:18;98607.31;;;2.80;87.93
20350;BME280;10332;50.208;18.988;2023-02-20T00:38:46;98615.06;;;2.78;88.04
20350;BME280;10332;50.208;18.988;2023-02-20T00:41:14;98620.13;;;2.83;87.69
20350;BME280;10332;50.208;18.988;2023-02-20T00:43:43;98611.53;;;2.82;87.77
20350;BME280;10332;50.208;18.988;2023-02-20T00:46:13;98605.47;;;2.83;88.07
20350;BME280;10332;50.208;18.988;2023-02-20T00:48:42;98606.16;;;2.90;87.56
20350;BME280;10332;50.208;18.988;2023-02-20T00:51:10;98604.66;;;2.83;87.23
20350;BME280;10332;50.208;18.988;2023-02-20T00:53:38;98619.31;;;2.81;87.36
20350;BME280;10332;50.208;18.988;2023-02-20T00:56:05;98619.94;;;2.89;87.38
20350;BME280;10332;50.208;18.988;2023-02-20T00:58:33;98618.16;;;2.91;87.36
20350;BME280;10332;50.208;18.988;2023-02-20T01:01:00;98632.56;;;2.98;87.13
20350;BME280;10332;50.208;18.988;2023-02-20T01:03:28;98638.78;;;2.91;87.51
20350;BME280;10332;50.208;18.988;2023-02-20T01:05:55;98635.22;;;2.95;87.41
20350;BME280;10332;50.208;18.988;2023-02-20T01:08:23;98637.06;;;2.92;87.37
20350;BME280;10332;50.208;18.988;2023-02-20T01:10:51;98624.38;;;2.84;87.38
20350;BME280;10332;50.208;18.988;2023-02-20T01:13:19;98615.69;;;2.87;87.67
20350;BME280;10332;50.208;18.988;2023-02-20T01:15:46;98615.06;;;2.80;87.42
20350;BME280;10332;50.208;18.988;2023-02-20T01:18:14;98615.84;;;2.82;87.32
20350;BME280;10332;50.208;18.988;2023-02-20T01:20:41;98614.00;;;2.85;87.42
20350;BME280;10332;50.208;18.988;2023-02-20T01:23:09;98607.69;;;2.96;86.86
20350;BME280;10332;50.208;18.988;2023-02-20T01:25:36;98612.91;;;2.94;86.63
20350;BME280;10332;50.208;18.988;2023-02-20T01:28:04;98607.84;;;2.91;86.66
20350;BME280;10332;50.208;18.988;2023-02-20T01:30:31;98607.84;;;2.91;86.52
20350;BME280;10332;50.208;18.988;2023-02-20T01:32:59;98606.91;;;2.94;86.28
20350;BME280;10332;50.208;18.988;2023-02-20T01:35:26;98608.78;;;2.89;86.11
20350;BME280;10332;50.208;18.988;2023-02-20T01:37:59;98600.91;;;2.93;86.17
20350;BME280;10332;50.208;18.988;2023-02-20T01:40:27;98600.16;;;2.90;86.16
20350;BME280;10332;50.208;18.988;2023-02-20T01:42:55;98598.22;;;2.96;86.13
20350;BME280;10332;50.208;18.988;2023-02-20T01:47:55;98593.28;;;2.90;86.03
20350;BME280;10332;50.208;18.988;2023-02-20T01:50:40;98595.06;;;2.87;86.40
20350;BME280;10332;50.208;18.988;2023-02-20T01:53:18;98595.75;;;2.93;85.92
20350;BME280;10332;50.208;18.988;2023-02-20T01:55:59;98594.53;;;3.05;85.88
20350;BME280;10332;50.208;18.988;2023-02-20T01:58:33;98589.53;;;3.00;85.70
20350;BME280;10332;50.208;18.988;2023-02-20T02:01:03;98581.69;;;3.03;85.62
20350;BME280;10332;50.208;18.988;2023-02-20T02:03:36;98585.00;;;3.08;85.54
20350;BME280;10332;50.208;18.988;2023-02-20T02:06:08;98563.63;;;3.03;85.24
20350;BME280;10332;50.208;18.988;2023-02-20T02:08:40;98563.69;;;3.02;85.15
20350;BME280;10332;50.208;18.988;2023-02-20T02:11:22;98556.84;;;3.01;85.17
20350;BME280;10332;50.208;18.988;2023-02-20T02:13:50;98544.69;;;3.04;85.18
20350;BME280;10332;50.208;18.988;2023-02-20T02:28:55;98527.34;;;3.09;84.16
20350;BME280;10332;50.208;18.988;2023-02-20T02:44:29;98513.78;;;3.03;83.12
20350;BME280;10332;50.208;18.988;2023-02-20T02:50:34;98519.78;;;3.03;83.28
20350;BME280;10332;50.208;18.988;2023-02-20T02:53:09;98522.28;;;3.06;82.76
20350;BME280;10332;50.208;18.988;2023-02-20T02:55:37;98514.56;;;3.06;82.23
20350;BME280;10332;50.208;18.988;2023-02-20T02:58:04;98519.91;;;3.00;82.09
20350;BME280;10332;50.208;18.988;2023-02-20T03:00:55;98529.19;;;3.06;81.99
20350;BME280;10332;50.208;18.988;2023-02-20T03:03:33;98524.22;;;3.00;82.22
20350;BME280;10332;50.208;18.988;2023-02-20T03:06:13;98519.19;;;2.95;82.28
20350;BME280;10332;50.208;18.988;2023-02-20T03:08:50;98528.53;;;2.99;82.31
20350;BME280;10332;50.208;18.988;2023-02-20T03:11:28;98520.03;;;2.96;82.59
20350;BME280;10332;50.208;18.988;2023-02-20T03:14:06;98515.59;;;3.01;82.14
20350;BME280;10332;50.208;18.988;2023-02-20T03:17:29;98504.47;;;2.99;82.09
20350;BME280;10332;50.208;18.988;2023-02-20T03:20:03;98510.53;;;2.98;82.25
20350;BME280;10332;50.208;18.988;2023-02-20T03:22:52;98494.22;;;2.96;82.06
20350;BME280;10332;50.208;18.988;2023-02-20T03:25:47;98486.88;;;2.83;82.26
20350;BME280;10332;50.208;18.988;2023-02-20T03:28:40;98473.66;;;2.94;82.03
20350;BME280;10332;50.208;18.988;2023-02-20T03:31:56;98474.31;;;3.01;81.92
20350;BME280;10332;50.208;18.988;2023-02-20T03:34:47;98479.59;;;2.98;81.70
20350;BME280;10332;50.208;18.988;2023-02-20T03:37:37;98483.09;;;2.95;81.65
20350;BME280;10332;50.208;18.988;2023-02-20T03:40:27;98490.19;;;2.89;81.91
20350;BME280;10332;50.208;18.988;2023-02-20T03:43:20;98485.72;;;2.94;81.49
20350;BME280;10332;50.208;18.988;2023-02-20T03:45:50;98487.56;;;2.90;81.61
20350;BME280;10332;50.208;18.988;2023-02-20T03:48:40;98480.78;;;2.86;81.30
20350;BME280;10332;50.208;18.988;2023-02-20T03:51:11;98485.88;;;2.89;81.31
20350;BME280;10332;50.208;18.988;2023-02-20T03:53:44;98492.78;;;2.87;81.43
20350;BME280;10332;50.208;18.988;2023-02-20T03:56:26;98497.06;;;2.88;81.29
20350;BME280;10332;50.208;18.988;2023-02-20T03:59:05;98495.53;;;2.82;81.24
20350;BME280;10332;50.208;18.988;2023-02-20T04:01:36;98496.34;;;2.83;80.97
20350;BME280;10332;50.208;18.988;2023-02-20T04:04:11;98493.91;;;2.78;81.11
20350;BME280;10332;50.208;18.988;2023-02-20T04:06:43;98489.38;;;2.87;80.92
20350;BME280;10332;50.208;18.988;2023-02-20T04:09:18;98497.59;;;2.71;81.34
20350;BME280;10332;50.208;18.988;2023-02-20T04:12:20;98486.44;;;2.71;81.23
20350;BME280;10332;50.208;18.988;2023-02-20T04:14:46;98484.69;;;2.71;80.93
20350;BME280;10332;50.208;18.988;2023-02-20T04:17:33;98482.84;;;2.75;80.93
20350;BME280;10332;50.208;18.988;2023-02-20T04:20:02;98484.91;;;2.64;81.14
20350;BME280;10332;50.208;18.988;2023-02-20T04:22:36;98484.16;;;2.60;80.96
20350;BME280;10332;50.208;18.988;2023-02-20T04:25:24;98468.66;;;2.62;80.78
20350;BME280;10332;50.208;18.988;2023-02-20T04:27:57;98480.03;;;2.54;81.13
20350;BME280;10332;50.208;18.988;2023-02-20T04:30:25;98473.47;;;2.44;81.64
20350;BME280;10332;50.208;18.988;2023-02-20T04:32:52;98473.28;;;2.50;81.42
20350;BME280;10332;50.208;18.988;2023-02-20T04:35:21;98474.88;;;2.54;81.36
20350;BME280;10332;50.208;18.988;2023-02-20T04:37:49;98466.81;;;2.37;81.91
20350;BME280;10332;50.208;18.988;2023-02-20T04:40:21;98471.91;;;2.39;81.96
20350;BME280;10332;50.208;18.988;2023-02-20T04:42:49;98470.19;;;2.39;81.95
20350;BME280;10332;50.208;18.988;2023-02-20T04:45:16;98470.78;;;2.47;81.40
20350;BME280;10332;50.208;18.988;2023-02-20T04:47:45;98466.63;;;2.43;81.59
20350;BME280;10332;50.208;18.988;2023-02-20T04:50:31;98458.81;;;2.46;80.88
20350;BME280;10332;50.208;18.988;2023-02-20T04:52:59;98457.91;;;2.47;80.37
20350;BME280;10332;50.208;18.988;2023-02-20T04:55:27;98447.72;;;2.44;80.78
20350;BME280;10332;50.208;18.988;2023-02-20T04:57:55;98450.69;;;2.31;81.12
20350;BME280;10332;50.208;18.988;2023-02-20T05:00:26;98442.72;;;2.38;80.89
20350;BME280;10332;50.208;18.988;2023-02-20T05:02:54;98436.34;;;2.22;81.16
20350;BME280;10332;50.208;18.988;2023-02-20T05:05:26;98448.88;;;2.34;81.14
20350;BME280;10332;50.208;18.988;2023-02-20T05:08:03;98440.72;;;2.48;80.72
20350;BME280;10332;50.208;18.988;2023-02-20T05:10:33;98434.78;;;2.46;81.06
20350;BME280;10332;50.208;18.988;2023-02-20T05:13:01;98422.34;;;2.31;81.33
20350;BME280;10332;50.208;18.988;2023-02-20T05:15:30;98418.47;;;2.45;80.86
20350;BME280;10332;50.208;18.988;2023-02-20T05:17:58;98409.34;;;2.35;81.39
20350;BME280;10332;50.208;18.988;2023-02-20T05:20:26;98407.84;;;2.28;81.45
20350;BME280;10332;50.208;18.988;2023-02-20T05:23:14;98406.03;;;2.30;81.63
20350;BME280;10332;50.208;18.988;2023-02-20T05:25:41;98413.78;;;2.30;81.98
20350;BME280;10332;50.208;18.988;2023-02-20T05:28:08;98411.06;;;2.35;82.04
20350;BME280;10332;50.208;18.988;2023-02-20T05:30:36;98419.44;;;2.41;81.88
20350;BME280;10332;50.208;18.988;2023-02-20T05:33:03;98429.84;;;2.38;82.00
20350;BME280;10332;50.208;18.988;2023-02-20T05:35:31;98426.94;;;2.49;82.30
20350;BME280;10332;50.208;18.988;2023-02-20T05:37:59;98427.72;;;2.51;81.94
20350;BME280;10332;50.208;18.988;2023-02-20T05:40:26;98434.81;;;2.44;82.46
20350;BME280;10332;50.208;18.988;2023-02-20T05:42:54;98437.31;;;2.47;82.19
20350;BME280;10332;50.208;18.988;2023-02-20T05:45:21;98425.41;;;2.43;82.65
20350;BME280;10332;50.208;18.988;2023-02-20T05:47:49;98423.53;;;2.48;82.33
20350;BME280;10332;50.208;18.988;2023-02-20T05:50:16;98422.56;;;2.51;82.62
20350;BME280;10332;50.208;18.988;2023-02-20T05:52:44;98428.69;;;2.48;82.82
20350;BME280;10332;50.208;18.988;2023-02-20T05:55:11;98430.13;;;2.57;82.60
20350;BME280;10332;50.208;18.988;2023-02-20T05:57:39;98443.88;;;2.58;82.56
20350;BME280;10332;50.208;18.988;2023-02-20T06:00:07;98432.88;;;2.51;82.75
20350;BME280;10332;50.208;18.988;2023-02-20T06:02:34;98436.31;;;2.51;82.60
20350;BME280;10332;50.208;18.988;2023-02-20T06:05:03;98430.31;;;2.51;82.89
20350;BME280;10332;50.208;18.988;2023-02-20T06:07:32;98432.59;;;2.32;84.20
20350;BME280;10332;50.208;18.988;2023-02-20T06:10:00;98431.25;;;2.48;84.09
20350;BME280;10332;50.208;18.988;2023-02-20T06:12:27;98432.66;;;2.59;83.58
20350;BME280;10332;50.208;18.988;2023-02-20T06:14:54;98430.97;;;2.58;83.73
20350;BME280;10332;50.208;18.988;2023-02-20T06:17:22;98441.84;;;2.67;83.84
20350;BME280;10332;50.208;18.988;2023-02-20T06:19:49;98441.38;;;2.82;83.06
20350;BME280;10332;50.208;18.988;2023-02-20T06:22:17;98441.44;;;2.81;82.94
20350;BME280;10332;50.208;18.988;2023-02-20T06:24:46;98439.47;;;2.89;82.89
20350;BME280;10332;50.208;18.988;2023-02-20T06:27:16;98435.94;;;2.92;82.65
20350;BME280;10332;50.208;18.988;2023-02-20T06:29:46;98426.75;;;3.09;81.77
20350;BME280;10332;50.208;18.988;2023-02-20T06:32:15;98427.94;;;3.26;81.57
20350;BME280;10332;50.208;18.988;2023-02-20T06:34:44;98424.28;;;3.33;81.00
20350;BME280;10332;50.208;18.988;2023-02-20T06:37:12;98425.84;;;3.37;80.19
20350;BME280;10332;50.208;18.988;2023-02-20T06:39:39;98417.47;;;3.30;80.70
20350;BME280;10332;50.208;18.988;2023-02-20T06:42:09;98420.56;;;3.40;80.15
20350;BME280;10332;50.208;18.988;2023-02-20T06:44:36;98415.72;;;3.31;80.74
20350;BME280;10332;50.208;18.988;2023-02-20T06:47:05;98430.88;;;3.40;80.83
20350;BME280;10332;50.208;18.988;2023-02-20T06:49:35;98423.66;;;3.51;80.27
20350;BME280;10332;50.208;18.988;2023-02-20T06:52:07;98432.13;;;3.55;80.62
20350;BME280;10332;50.208;18.988;2023-02-20T06:54:35;98434.16;;;3.45;81.00
20350;BME280;10332;50.208;18.988;2023-02-20T06:57:03;98430.81;;;3.43;81.43
20350;BME280;10332;50.208;18.988;2023-02-20T06:59:30;98424.44;;;3.53;81.06
20350;BME280;10332;50.208;18.988;2023-02-20T07:01:58;98429.59;;;3.53;81.00
20350;BME280;10332;50.208;18.988;2023-02-20T07:04:25;98419.19;;;3.80;79.89
20350;BME280;10332;50.208;18.988;2023-02-20T07:06:54;98426.00;;;4.06;78.84
20350;BME280;10332;50.208;18.988;2023-02-20T07:09:22;98434.56;;;4.30;77.54
20350;BME280;10332;50.208;18.988;2023-02-20T07:11:52;98410.59;;;4.49;76.00
20350;BME280;10332;50.208;18.988;2023-02-20T07:14:21;98409.47;;;4.33;76.46
20350;BME280;10332;50.208;18.988;2023-02-20T07:16:49;98417.13;;;4.58;76.05
20350;BME280;10332;50.208;18.988;2023-02-20T07:19:16;98421.88;;;4.91;74.74
20350;BME280;10332;50.208;18.988;2023-02-20T07:21:46;98425.00;;;4.99;74.19
20350;BME280;10332;50.208;18.988;2023-02-20T07:24:13;98416.66;;;4.70;74.55
20350;BME280;10332;50.208;18.988;2023-02-20T07:26:41;98403.13;;;4.64;75.26
20350;BME280;10332;50.208;18.988;2023-02-20T07:29:11;98409.91;;;4.66;74.96
20350;BME280;10332;50.208;18.988;2023-02-20T07:31:38;98409.06;;;4.66;75.39
20350;BME280;10332;50.208;18.988;2023-02-20T07:34:06;98397.59;;;4.73;75.30
20350;BME280;10332;50.208;18.988;2023-02-20T07:36:34;98390.56;;;4.76;75.45
20350;BME280;10332;50.208;18.988;2023-02-20T07:39:03;98387.09;;;4.98;75.43
20350;BME280;10332;50.208;18.988;2023-02-20T07:41:33;98380.03;;;5.01;75.21
20350;BME280;10332;50.208;18.988;2023-02-20T07:44:04;98374.56;;;5.09;75.76
20350;BME280;10332;50.208;18.988;2023-02-20T07:46:32;98362.91;;;5.19;75.20
20350;BME280;10332;50.208;18.988;2023-02-20T07:49:02;98388.31;;;5.31;75.52
20350;BME280;10332;50.208;18.988;2023-02-20T07:51:31;98381.28;;;5.54;75.10
20350;BME280;10332;50.208;18.988;2023-02-20T07:53:58;98368.41;;;5.52;75.42
20350;BME280;10332;50.208;18.988;2023-02-20T07:56:26;98361.72;;;5.67;75.55
20350;BME280;10332;50.208;18.988;2023-02-20T07:58:54;98346.81;;;5.72;74.92
20350;BME280;10332;50.208;18.988;2023-02-20T08:01:21;98347.03;;;5.86;74.34
20350;BME280;10332;50.208;18.988;2023-02-20T08:03:49;98369.63;;;6.22;73.25
20350;BME280;10332;50.208;18.988;2023-02-20T08:06:18;98363.28;;;6.29;72.89
20350;BME280;10332;50.208;18.988;2023-02-20T08:08:49;98350.28;;;6.10;72.48
20350;BME280;10332;50.208;18.988;2023-02-20T08:11:19;98352.13;;;5.69;73.74
20350;BME280;10332;50.208;18.988;2023-02-20T08:13:48;98361.44;;;5.73;73.67
20350;BME280;10332;50.208;18.988;2023-02-20T08:16:15;98349.69;;;5.46;75.07
20350;BME280;10332;50.208;18.988;2023-02-20T08:18:43;98349.66;;;5.27;76.12
20350;BME280;10332;50.208;18.988;2023-02-20T08:21:11;98335.66;;;5.51;75.06
20350;BME280;10332;50.208;18.988;2023-02-20T08:23:38;98362.78;;;5.43;75.13
20350;BME280;10332;50.208;18.988;2023-02-20T08:26:06;98350.16;;;5.35;75.99
20350;BME280;10332;50.208;18.988;2023-02-20T08:28:33;98357.03;;;5.16;76.87
20350;BME280;10332;50.208;18.988;2023-02-20T08:31:01;98353.53;;;5.37;76.64
20350;BME280;10332;50.208;18.988;2023-02-20T08:33:29;98341.47;;;5.95;74.66
20350;BME280;10332;50.208;18.988;2023-02-20T08:35:56;98338.13;;;6.12;74.25
20350;BME280;10332;50.208;18.988;2023-02-20T08:38:34;98349.66;;;6.24;73.71
20350;BME280;10332;50.208;18.988;2023-02-20T08:41:07;98327.47;;;6.54;73.04
20350;BME280;10332;50.208;18.988;2023-02-20T08:43:37;98348.34;;;6.88;71.48
20350;BME280;10332;50.208;18.988;2023-02-20T08:46:06;98323.31;;;6.87;71.50
20350;BME280;10332;50.208;18.988;2023-02-20T08:48:34;98329.06;;;7.44;69.51
20350;BME280;10332;50.208;18.988;2023-02-20T08:51:04;98316.94;;;7.09;70.51
20350;BME280;10332;50.208;18.988;2023-02-20T08:53:33;98314.97;;;6.80;71.93
20350;BME280;10332;50.208;18.988;2023-02-20T08:56:00;98317.03;;;6.56;73.07
20350;BME280;10332;50.208;18.988;2023-02-20T08:58:28;98295.97;;;6.26;74.98
20350;BME280;10332;50.208;18.988;2023-02-20T09:00:55;98302.94;;;6.07;75.71
20350;BME280;10332;50.208;18.988;2023-02-20T09:03:23;98300.19;;;6.10;75.87
20350;BME280;10332;50.208;18.988;2023-02-20T09:05:50;98320.38;;;5.84;76.70
20350;BME280;10332;50.208;18.988;2023-02-20T09:08:18;98294.94;;;5.74;77.59
20350;BME280;10332;50.208;18.988;2023-02-20T09:10:46;98292.22;;;5.77;78.00
20350;BME280;10332;50.208;18.988;2023-02-20T09:13:13;98260.31;;;5.95;77.45
20350;BME280;10332;50.208;18.988;2023-02-20T09:15:41;98268.41;;;6.06;77.06
20350;BME280;10332;50.208;18.988;2023-02-20T09:18:12;98265.19;;;6.37;75.96
20350;BME280;10332;50.208;18.988;2023-02-20T09:20:40;98255.47;;;6.60;75.41
20350;BME280;10332;50.208;18.988;2023-02-20T09:23:08;98247.97;;;6.53;75.59
20350;BME280;10332;50.208;18.988;2023-02-20T09:25:37;98251.56;;;6.51;75.31
20350;BME280;10332;50.208;18.988;2023-02-20T09:28:04;98250.50;;;6.55;75.41
20350;BME280;10332;50.208;18.988;2023-02-20T09:30:32;98242.03;;;6.51;75.46
20350;BME280;10332;50.208;18.988;2023-02-20T09:33:00;98251.41;;;6.54;76.33
20350;BME280;10332;50.208;18.988;2023-02-20T09:35:30;98250.25;;;6.42;76.77
20350;BME280;10332;50.208;18.988;2023-02-20T09:37:57;98235.91;;;6.35;77.26
20350;BME280;10332;50.208;18.988;2023-02-20T09:40:29;98239.66;;;6.47;76.88
20350;BME280;10332;50.208;18.988;2023-02-20T09:43:20;98228.75;;;6.40;77.08
20350;BME280;10332;50.208;18.988;2023-02-20T09:46:07;98242.13;;;6.50;76.79
20350;BME280;10332;50.208;18.988;2023-02-20T09:51:50;98214.34;;;6.69;76.22
20350;BME280;10332;50.208;18.988;2023-02-20T09:54:35;98213.28;;;6.56;77.07
20350;BME280;10332;50.208;18.988;2023-02-20T09:57:18;98224.63;;;6.53;77.34
20350;BME280;10332;50.208;18.988;2023-02-20T09:59:52;98214.44;;;6.50;77.97
20350;BME280;10332;50.208;18.988;2023-02-20T10:02:33;98228.88;;;6.37;78.48
20350;BME280;10332;50.208;18.988;2023-02-20T10:05:22;98221.75;;;6.42;78.34
20350;BME280;10332;50.208;18.988;2023-02-20T10:07:52;98216.19;;;6.50;78.13
20350;BME280;10332;50.208;18.988;2023-02-20T10:10:28;98215.19;;;6.52;77.91
20350;BME280;10332;50.208;18.988;2023-02-20T10:13:12;98220.75;;;6.62;77.43
20350;BME280;10332;50.208;18.988;2023-02-20T10:19:01;98204.22;;;6.98;76.70
20350;BME280;10332;50.208;18.988;2023-02-20T10:27:58;98148.66;;;7.18;76.03
20350;BME280;10332;50.208;18.988;2023-02-20T10:30:31;98167.13;;;6.96;76.98
20350;BME280;10332;50.208;18.988;2023-02-20T10:33:25;98152.88;;;6.87;77.46
20350;BME280;10332;50.208;18.988;2023-02-20T10:36:03;98146.50;;;6.77;78.20
20350;BME280;10332;50.208;18.988;2023-02-20T10:38:47;98138.91;;;6.90;78.38
20350;BME280;10332;50.208;18.988;2023-02-20T10:41:42;98143.69;;;6.97;78.27
20350;BME280;10332;50.208;18.988;2023-02-20T10:44:30;98138.97;;;7.21;77.03
20350;BME280;10332;50.208;18.988;2023-02-20T10:47:21;98142.16;;;7.42;76.59
20350;BME280;10332;50.208;18.988;2023-02-20T10:52:47;98108.94;;;7.63;75.53
20350;BME280;10332;50.208;18.988;2023-02-20T10:55:35;98156.44;;;7.96;74.45
20350;BME280;10332;50.208;18.988;2023-02-20T11:01:04;98108.97;;;8.96;70.66
20350;BME280;10332;50.208;18.988;2023-02-20T11:06:05;98061.91;;;9.40;68.31
20350;BME280;10332;50.208;18.988;2023-02-20T11:08:35;98091.56;;;9.10;69.40
20350;BME280;10332;50.208;18.988;2023-02-20T11:11:34;98068.25;;;8.95;70.82
20350;BME280;10332;50.208;18.988;2023-02-20T11:17:16;98055.13;;;10.17;67.42
20350;BME280;10332;50.208;18.988;2023-02-20T11:19:49;98053.38;;;10.30;66.03
20350;BME280;10332;50.208;18.988;2023-02-20T11:27:45;98054.97;;;9.93;68.07
20350;BME280;10332;50.208;18.988;2023-02-20T11:33:15;98021.88;;;10.95;65.57
20350;BME280;10332;50.208;18.988;2023-02-20T11:35:48;98050.88;;;11.53;62.89
20350;BME280;10332;50.208;18.988;2023-02-20T11:43:38;97999.72;;;11.01;65.10
20350;BME280;10332;50.208;18.988;2023-02-20T11:46:16;97989.19;;;11.50;63.21
20350;BME280;10332;50.208;18.988;2023-02-20T11:49:21;97984.56;;;10.69;65.22
20350;BME280;10332;50.208;18.988;2023-02-20T11:51:50;97949.56;;;10.35;67.52
20350;BME280;10332;50.208;18.988;2023-02-20T11:54:25;97950.91;;;9.90;69.58
20350;BME280;10332;50.208;18.988;2023-02-20T11:57:01;97966.00;;;9.32;72.41
20350;BME280;10332;50.208;18.988;2023-02-20T11:59:38;97950.97;;;9.23;73.56
20350;BME280;10332;50.208;18.988;2023-02-20T12:02:26;97936.78;;;9.15;74.30
20350;BME280;10332;50.208;18.988;2023-02-20T12:05:11;97935.16;;;9.26;74.40
20350;BME280;10332;50.208;18.988;2023-02-20T12:13:05;97908.97;;;9.15;74.88
20350;BME280;10332;50.208;18.988;2023-02-20T12:15:33;97906.19;;;9.18;75.17
20350;BME280;10332;50.208;18.988;2023-02-20T12:21:44;97891.72;;;9.27;75.59
20350;BME280;10332;50.208;18.988;2023-02-20T12:31:02;97887.81;;;11.19;68.82
20350;BME280;10332;50.208;18.988;2023-02-20T12:33:45;97874.00;;;11.87;65.59
20350;BME280;10332;50.208;18.988;2023-02-20T12:36:32;97914.59;;;12.81;61.43
20350;BME280;10332;50.208;18.988;2023-02-20T12:53:59;97845.75;;;13.43;58.14
20350;BME280;10332;50.208;18.988;2023-02-20T12:56:45;97905.94;;;15.55;52.20
20350;BME280;10332;50.208;18.988;2023-02-20T13:01:50;97886.28;;;13.80;55.45
20350;BME280;10332;50.208;18.988;2023-02-20T13:04:28;97859.63;;;13.54;56.74
20350;BME280;10332;50.208;18.988;2023-02-20T13:07:33;97836.34;;;12.87;58.68
20350;BME280;10332;50.208;18.988;2023-02-20T13:10:19;97825.94;;;11.88;62.37
20350;BME280;10332;50.208;18.988;2023-02-20T13:12:52;97853.53;;;12.14;61.81
20350;BME280;10332;50.208;18.988;2023-02-20T13:16:02;97826.28;;;11.94;62.96
20350;BME280;10332;50.208;18.988;2023-02-20T13:18:47;97814.00;;;13.46;58.36
20350;BME280;10332;50.208;18.988;2023-02-20T13:21:23;97819.69;;;13.09;59.21
20350;BME280;10332;50.208;18.988;2023-02-20T13:24:33;97821.38;;;14.13;56.00
20350;BME280;10332;50.208;18.988;2023-02-20T13:27:08;97792.72;;;15.18;53.16
20350;BME280;10332;50.208;18.988;2023-02-20T13:29:55;97774.78;;;14.74;53.70
20350;BME280;10332;50.208;18.988;2023-02-20T13:32:32;97786.97;;;13.24;57.61
20350;BME280;10332;50.208;18.988;2023-02-20T13:35:45;97814.28;;;12.90;59.28
20350;BME280;10332;50.208;18.988;2023-02-20T13:38:19;97780.13;;;13.33;58.57
20350;BME280;10332;50.208;18.988;2023-02-20T13:43:30;97761.72;;;12.49;60.60
20350;BME280;10332;50.208;18.988;2023-02-20T13:53:45;97742.38;;;10.84;68.38
20350;BME280;10332;50.208;18.988;2023-02-20T13:56:21;97749.84;;;10.42;69.90
20350;BME280;10332;50.208;18.988;2023-02-20T13:58:50;97751.34;;;10.34;70.72
20350;BME280;10332;50.208;18.988;2023-02-20T14:01:20;97737.25;;;10.36;71.54
20350;BME280;10332;50.208;18.988;2023-02-20T14:04:03;97700.91;;;10.09;72.74
20350;BME280;10332;50.208;18.988;2023-02-20T14:06:31;97701.34;;;10.03;73.26
20350;BME280;10332;50.208;18.988;2023-02-20T14:09:20;97688.69;;;9.86;74.29
20350;BME280;10332;50.208;18.988;2023-02-20T14:11:50;97669.16;;;9.67;75.56
20350;BME280;10332;50.208;18.988;2023-02-20T14:14:27;97648.47;;;9.77;75.59
20350;BME280;10332;50.208;18.988;2023-02-20T14:17:15;97670.63;;;9.59;76.95
20350;BME280;10332;50.208;18.988;2023-02-20T14:19:53;97634.97;;;9.59;76.85
20350;BME280;10332;50.208;18.988;2023-02-20T14:22:38;97614.44;;;9.91;76.06
20350;BME280;10332;50.208;18.988;2023-02-20T14:27:37;97643.03;;;10.04;75.88
20350;BME280;10332;50.208;18.988;2023-02-20T14:30:28;97607.47;;;10.27;74.81
20350;BME280;10332;50.208;18.988;2023-02-20T14:32:57;97619.06;;;10.23;75.10
20350;BME280;10332;50.208;18.988;2023-02-20T14:36:12;97605.19;;;10.22;75.13
20350;BME280;10332;50.208;18.988;2023-02-20T14:41:59;97598.25;;;10.45;74.42
20350;BME280;10332;50.208;18.988;2023-02-20T14:44:30;97584.66;;;10.98;72.84
20350;BME280;10332;50.208;18.988;2023-02-20T14:49:34;97599.50;;;12.48;66.41
20350;BME280;10332;50.208;18.988;2023-02-20T14:52:22;97612.97;;;12.85;65.88
20350;BME280;10332;50.208;18.988;2023-02-20T14:55:00;97601.91;;;13.72;62.06
20350;BME280;10332;50.208;18.988;2023-02-20T14:57:29;97588.63;;;13.04;63.74
20350;BME280;10332;50.208;18.988;2023-02-20T15:00:23;97611.63;;;12.07;67.75
20350;BME280;10332;50.208;18.988;2023-02-20T15:02:54;97574.00;;;11.76;69.27
20350;BME280;10332;50.208;18.988;2023-02-20T15:05:31;97581.78;;;11.66;69.96
20350;BME280;10332;50.208;18.988;2023-02-20T15:10:52;97570.28;;;10.92;72.77
20350;BME280;10332;50.208;18.988;2023-02-20T15:13:25;97591.63;;;10.52;74.78
20350;BME280;10332;50.208;18.988;2023-02-20T15:16:32;97595.78;;;10.20;76.16
20350;BME280;10332;50.208;18.988;2023-02-20T15:19:02;97598.38;;;10.09;77.20
20350;BME280;10332;50.208;18.988;2023-02-20T15:21:56;97575.72;;;10.09;77.05
20350;BME280;10332;50.208;18.988;2023-02-20T15:26:51;97590.53;;;9.74;77.87
20350;BME280;10332;50.208;18.988;2023-02-20T15:29:24;97568.59;;;9.76;78.11
20350;BME280;10332;50.208;18.988;2023-02-20T15:34:41;97561.41;;;9.56;78.63
20350;BME280;10332;50.208;18.988;2023-02-20T15:37:24;97571.50;;;9.60;78.76
20350;BME280;10332;50.208;18.988;2023-02-20T15:40:26;97591.78;;;9.68;77.36
20350;BME280;10332;50.208;18.988;2023-02-20T15:42:54;97569.56;;;9.75;77.22